sensor_id;sensor_type;location;lat;lon;timestamp;pressure;altitude;pressure_sealevel;temperature;humidity
37710;BME280;60223;34.854;-92.408;2023-04-05T00:01:39;99528.57;;;23.95;42.71
37710;BME280;60223;34.854;-92.408;2023-04-05T00:04:07;99514.53;;;23.98;42.69
37710;BME280;60223;34.854;-92.408;2023-04-05T00:06:31;99507.43;;;23.54;42.61
37710;BME280;60223;34.854;-92.408;2023-04-05T00:08:57;99510.92;;;23.90;42.77
37710;BME280;60223;34.854;-92.408;2023-04-05T00:11:19;99514.93;;;23.94;42.60
37710;BME280;60223;34.854;-92.408;2023-04-05T00:13:47;99514.95;;;23.39;42.84
37710;BME280;60223;34.854;-92.408;2023-04-05T00:16:14;99513.36;;;23.68;42.65
37710;BME280;60223;34.854;-92.408;2023-04-05T00:18:38;99525.39;;;23.67;42.72
37710;BME280;60223;34.854;-92.408;2023-04-05T00:21:01;99501.33;;;23.68;42.74
37710;BME280;60223;34.854;-92.408;2023-04-05T00:23:26;99503.83;;;23.76;42.64
37710;BME280;60223;34.854;-92.408;2023-04-05T00:25:54;99502.40;;;23.52;42.72
37710;BME280;60223;34.854;-92.408;2023-04-05T00:28:19;99505.37;;;23.95;42.81
37710;BME280;60223;34.854;-92.408;2023-04-05T00:30:44;99509.79;;;23.77;42.73
37710;BME280;60223;34.854;-92.408;2023-04-05T00:33:08;99520.94;;;24.01;42.77
37710;BME280;60223;34.854;-92.408;2023-04-05T00:35:35;99536.88;;;23.78;42.79
37710;BME280;60223;34.854;-92.408;2023-04-05T00:38:00;99540.12;;;23.74;42.87
37710;BME280;60223;34.854;-92.408;2023-04-05T00:40:26;99559.21;;;24.01;42.88
37710;BME280;60223;34.854;-92.408;2023-04-05T00:42:47;99575.53;;;23.50;42.91
37710;BME280;60223;34.854;-92.408;2023-04-05T00:45:16;99565.44;;;23.97;42.98
37710;BME280;60223;34.854;-92.408;2023-04-05T00:47:40;99559.09;;;23.80;42.84
37710;BME280;60223;34.854;-92.408;2023-04-05T00:50:06;99563.90;;;23.96;42.98
37710;BME280;60223;34.854;-92.408;2023-04-05T00:52:30;99567.11;;;24.00;42.93
37710;BME280;60223;34.854;-92.408;2023-04-05T00:54:56;99567.94;;;23.80;42.88
37710;BME280;60223;34.854;-92.408;2023-04-05T00:57:22;99565.30;;;24.07;42.85
37710;BME280;60223;34.854;-92.408;2023-04-05T00:59:47;99541.71;;;24.12;42.71
37710;BME280;60223;34.854;-92.408;2023-04-05T01:02:17;99558.48;;;24.11;42.76
37710;BME280;60223;34.854;-92.408;2023-04-05T01:04:40;99548.33;;;23.62;42.78
37710;BME280;60223;34.854;-92.408;2023-04-05T01:07:08;99547.63;;;23.62;42.78
37710;BME280;60223;34.854;-92.408;2023-04-05T01:09:39;99538.97;;;23.93;42.65
37710;BME280;60223;34.854;-92.408;2023-04-05T01:11:56;99537.38;;;23.65;42.70
37710;BME280;60223;34.854;-92.408;2023-04-05T01:14:20;99551.48;;;24.17;42.62
37710;BME280;60223;34.854;-92.408;2023-04-05T01:16:45;99551.80;;;23.90;42.70
37710;BME280;60223;34.854;-92.408;2023-04-05T01:19:11;99559.22;;;24.12;42.69
37710;BME280;60223;34.854;-92.408;2023-04-05T01:21:54;99556.27;;;23.62;42.74
37710;BME280;60223;34.854;-92.408;2023-04-05T01:24:06;99559.37;;;23.67;42.64
37710;BME280;60223;34.854;-92.408;2023-04-05T01:29:04;99530.78;;;23.85;42.70
37710;BME280;60223;34.854;-92.408;2023-04-05T01:31:23;99519.90;;;24.16;42.62
37710;BME280;60223;34.854;-92.408;2023-04-05T01:33:48;99518.10;;;23.59;42.74
37710;BME280;60223;34.854;-92.408;2023-04-05T01:36:16;99527.25;;;23.78;42.85
37710;BME280;60223;34.854;-92.408;2023-04-05T01:38:35;99569.39;;;23.91;42.61
37710;BME280;60223;34.854;-92.408;2023-04-05T01:41:00;99580.75;;;23.96;42.54
37710;BME280;60223;34.854;-92.408;2023-04-05T01:43:26;99574.53;;;24.16;42.57
37710;BME280;60223;34.854;-92.408;2023-04-05T01:45:52;99591.84;;;23.67;42.61
37710;BME280;60223;34.854;-92.408;2023-04-05T01:48:18;99591.97;;;23.74;42.48
37710;BME280;60223;34.854;-92.408;2023-04-05T01:50:44;99605.04;;;23.97;42.53
37710;BME280;60223;34.854;-92.408;2023-04-05T01:53:11;99599.00;;;23.71;42.52
37710;BME280;60223;34.854;-92.408;2023-04-05T01:55:34;99604.84;;;23.91;42.57
37710;BME280;60223;34.854;-92.408;2023-04-05T01:58:00;99596.28;;;23.96;42.46
37710;BME280;60223;34.854;-92.408;2023-04-05T02:00:26;99599.91;;;24.14;42.58
37710;BME280;60223;34.854;-92.408;2023-04-05T02:02:51;99596.70;;;23.94;42.50
37710;BME280;60223;34.854;-92.408;2023-04-05T02:05:16;99601.80;;;23.68;42.51
37710;BME280;60223;34.854;-92.408;2023-04-05T02:07:41;99606.20;;;24.14;42.55
37710;BME280;60223;34.854;-92.408;2023-04-05T02:10:08;99606.21;;;24.20;42.45
37710;BME280;60223;34.854;-92.408;2023-04-05T02:12:33;99622.91;;;23.93;42.49
37710;BME280;60223;34.854;-92.408;2023-04-05T02:14:59;99632.09;;;23.70;42.49
37710;BME280;60223;34.854;-92.408;2023-04-05T02:17:23;99637.66;;;23.89;42.53
37710;BME280;60223;34.854;-92.408;2023-04-05T02:19:48;99658.13;;;23.64;42.54
37710;BME280;60223;34.854;-92.408;2023-04-05T02:22:14;99653.35;;;23.68;42.47
37710;BME280;60223;34.854;-92.408;2023-04-05T02:24:40;99690.48;;;23.69;42.47
37710;BME280;60223;34.854;-92.408;2023-04-05T02:27:02;99726.15;;;23.65;42.54
37710;BME280;60223;34.854;-92.408;2023-04-05T02:29:31;99731.79;;;23.88;42.54
37710;BME280;60223;34.854;-92.408;2023-04-05T02:31:56;99720.22;;;23.68;42.48
37710;BME280;60223;34.854;-92.408;2023-04-05T02:34:21;99721.86;;;23.68;42.48
37710;BME280;60223;34.854;-92.408;2023-04-05T02:36:47;99739.64;;;23.68;42.47
37710;BME280;60223;34.854;-92.408;2023-04-05T02:39:12;99739.69;;;23.69;42.42
37710;BME280;60223;34.854;-92.408;2023-04-05T02:41:37;99703.74;;;24.16;42.41
37710;BME280;60223;34.854;-92.408;2023-04-05T02:44:03;99713.96;;;23.88;42.45
37710;BME280;60223;34.854;-92.408;2023-04-05T02:46:28;99707.20;;;23.93;42.39
37710;BME280;60223;34.854;-92.408;2023-04-05T02:48:53;99675.30;;;23.71;42.32
37710;BME280;60223;34.854;-92.408;2023-04-05T02:51:19;99655.22;;;23.67;42.39
37710;BME280;60223;34.854;-92.408;2023-04-05T02:53:45;99616.84;;;24.16;42.36
37710;BME280;60223;34.854;-92.408;2023-04-05T02:56:09;99585.17;;;23.93;42.31
37710;BME280;60223;34.854;-92.408;2023-04-05T02:58:36;99558.96;;;23.70;42.31
37710;BME280;60223;34.854;-92.408;2023-04-05T03:01:02;99509.53;;;23.92;42.33
37710;BME280;60223;34.854;-92.408;2023-04-05T03:03:27;99466.04;;;23.66;42.30
37710;BME280;60223;34.854;-92.408;2023-04-05T03:08:18;99397.21;;;23.88;42.30
37710;BME280;60223;34.854;-92.408;2023-04-05T03:10:44;99367.84;;;24.07;42.38
37710;BME280;60223;34.854;-92.408;2023-04-05T03:13:09;99355.44;;;23.63;42.33
37710;BME280;60223;34.854;-92.408;2023-04-05T03:15:35;99404.95;;;23.89;42.34
37710;BME280;60223;34.854;-92.408;2023-04-05T03:17:59;99423.91;;;23.58;42.44
37710;BME280;60223;34.854;-92.408;2023-04-05T03:20:25;99500.62;;;23.52;42.51
37710;BME280;60223;34.854;-92.408;2023-04-05T03:22:50;99523.99;;;23.63;42.35
37710;BME280;60223;34.854;-92.408;2023-04-05T03:25:17;99569.51;;;23.91;42.32
37710;BME280;60223;34.854;-92.408;2023-04-05T03:27:42;99546.76;;;23.61;42.40
37710;BME280;60223;34.854;-92.408;2023-04-05T03:30:08;99552.76;;;23.87;42.36
37710;BME280;60223;34.854;-92.408;2023-04-05T03:32:32;99562.60;;;24.16;42.28
37710;BME280;60223;34.854;-92.408;2023-04-05T03:34:55;99574.12;;;23.90;42.31
37710;BME280;60223;34.854;-92.408;2023-04-05T03:37:23;99578.17;;;24.12;42.32
37710;BME280;60223;34.854;-92.408;2023-04-05T03:39:48;99566.12;;;24.08;42.40
37710;BME280;60223;34.854;-92.408;2023-04-05T03:42:14;99584.06;;;23.90;42.25
37710;BME280;60223;34.854;-92.408;2023-04-05T03:44:38;99575.46;;;23.68;42.25
37710;BME280;60223;34.854;-92.408;2023-04-05T03:47:04;99568.98;;;23.69;42.20
37710;BME280;60223;34.854;-92.408;2023-04-05T03:49:30;99556.81;;;23.91;42.19
37710;BME280;60223;34.854;-92.408;2023-04-05T03:51:55;99550.52;;;23.91;42.17
37710;BME280;60223;34.854;-92.408;2023-04-05T03:54:21;99505.02;;;24.15;42.13
37710;BME280;60223;34.854;-92.408;2023-04-05T03:56:43;99498.08;;;24.13;42.12
37710;BME280;60223;34.854;-92.408;2023-04-05T03:59:12;99519.01;;;23.91;42.07
37710;BME280;60223;34.854;-92.408;2023-04-05T04:01:37;99538.04;;;24.17;42.02
37710;BME280;60223;34.854;-92.408;2023-04-05T04:04:02;99621.11;;;23.93;42.04
37710;BME280;60223;34.854;-92.408;2023-04-05T04:06:27;99620.91;;;23.92;41.99
37710;BME280;60223;34.854;-92.408;2023-04-05T04:08:53;99638.47;;;23.91;41.99
37710;BME280;60223;34.854;-92.408;2023-04-05T04:11:18;99599.84;;;23.69;41.93
37710;BME280;60223;34.854;-92.408;2023-04-05T04:13:44;99584.20;;;24.17;41.92
37710;BME280;60223;34.854;-92.408;2023-04-05T04:16:09;99584.05;;;23.87;41.98
37710;BME280;60223;34.854;-92.408;2023-04-05T04:18:32;99587.65;;;23.90;41.93
37710;BME280;60223;34.854;-92.408;2023-04-05T04:21:01;99587.58;;;24.11;41.98
37710;BME280;60223;34.854;-92.408;2023-04-05T04:23:25;99599.70;;;23.93;41.92
37710;BME280;60223;34.854;-92.408;2023-04-05T04:25:53;99607.56;;;24.15;41.88
37710;BME280;60223;34.854;-92.408;2023-04-05T04:28:16;99604.20;;;24.16;41.86
37710;BME280;60223;34.854;-92.408;2023-04-05T04:30:41;99593.15;;;23.64;41.89
37710;BME280;60223;34.854;-92.408;2023-04-05T04:33:05;99600.03;;;23.90;41.84
37710;BME280;60223;34.854;-92.408;2023-04-05T04:35:33;99608.95;;;23.87;41.88
37710;BME280;60223;34.854;-92.408;2023-04-05T04:37:58;99615.63;;;23.63;41.86
37710;BME280;60223;34.854;-92.408;2023-04-05T04:40:24;99611.05;;;23.67;41.80
37710;BME280;60223;34.854;-92.408;2023-04-05T04:42:46;99610.06;;;24.13;41.81
37710;BME280;60223;34.854;-92.408;2023-04-05T04:45:14;99599.31;;;23.88;41.82
37710;BME280;60223;34.854;-92.408;2023-04-05T04:47:38;99594.11;;;23.91;41.74
37710;BME280;60223;34.854;-92.408;2023-04-05T04:50:04;99585.17;;;23.67;41.75
37710;BME280;60223;34.854;-92.408;2023-04-05T04:52:26;99561.45;;;24.14;41.72
37710;BME280;60223;34.854;-92.408;2023-04-05T04:54:54;99548.56;;;23.90;41.74
37710;BME280;60223;34.854;-92.408;2023-04-05T04:57:19;99560.42;;;23.65;41.73
37710;BME280;60223;34.854;-92.408;2023-04-05T04:59:45;99567.51;;;23.63;41.76
37710;BME280;60223;34.854;-92.408;2023-04-05T05:02:10;99583.53;;;23.62;41.77
37710;BME280;60223;34.854;-92.408;2023-04-05T05:04:36;99587.04;;;23.65;41.73
37710;BME280;60223;34.854;-92.408;2023-04-05T05:07:00;99597.88;;;23.67;41.68
37710;BME280;60223;34.854;-92.408;2023-04-05T05:09:25;99600.89;;;23.69;41.63
37710;BME280;60223;34.854;-92.408;2023-04-05T05:11:52;99590.01;;;23.68;41.63
37710;BME280;60223;34.854;-92.408;2023-04-05T05:14:17;99599.53;;;23.67;41.63
37710;BME280;60223;34.854;-92.408;2023-04-05T05:16:42;99607.81;;;23.68;41.61
37710;BME280;60223;34.854;-92.408;2023-04-05T05:19:07;99599.03;;;23.68;41.59
37710;BME280;60223;34.854;-92.408;2023-04-05T05:21:33;99601.24;;;23.67;41.59
37710;BME280;60223;34.854;-92.408;2023-04-05T05:23:57;99598.03;;;23.90;41.59
37710;BME280;60223;34.854;-92.408;2023-04-05T05:26:24;99592.01;;;23.89;41.63
37710;BME280;60223;34.854;-92.408;2023-04-05T05:28:50;99581.26;;;23.90;41.61
37710;BME280;60223;34.854;-92.408;2023-04-05T05:31:16;99580.70;;;23.68;41.58
37710;BME280;60223;34.854;-92.408;2023-04-05T05:33:41;99597.60;;;23.67;41.60
37710;BME280;60223;34.854;-92.408;2023-04-05T05:36:07;99618.05;;;23.68;41.58
37710;BME280;60223;34.854;-92.408;2023-04-05T05:38:31;99621.35;;;23.65;41.60
37710;BME280;60223;34.854;-92.408;2023-04-05T05:40:57;99636.72;;;23.66;41.59
37710;BME280;60223;34.854;-92.408;2023-04-05T05:43:23;99640.89;;;24.16;41.53
37710;BME280;60223;34.854;-92.408;2023-04-05T05:45:47;99636.56;;;23.66;41.55
37710;BME280;60223;34.854;-92.408;2023-04-05T05:48:10;99648.05;;;23.68;41.51
37710;BME280;60223;34.854;-92.408;2023-04-05T05:50:37;99663.28;;;23.67;41.55
37710;BME280;60223;34.854;-92.408;2023-04-05T05:53:04;99664.88;;;24.12;41.56
37710;BME280;60223;34.854;-92.408;2023-04-05T05:55:29;99674.46;;;23.89;41.55
37710;BME280;60223;34.854;-92.408;2023-04-05T05:57:53;99660.87;;;23.87;41.56
37710;BME280;60223;34.854;-92.408;2023-04-05T06:00:19;99653.37;;;23.87;41.54
37710;BME280;60223;34.854;-92.408;2023-04-05T06:02:45;99659.99;;;23.86;41.56
37710;BME280;60223;34.854;-92.408;2023-04-05T06:05:10;99660.90;;;23.65;41.51
37710;BME280;60223;34.854;-92.408;2023-04-05T06:07:37;99661.99;;;23.63;41.52
37710;BME280;60223;34.854;-92.408;2023-04-05T06:10:02;99662.12;;;24.09;41.54
37710;BME280;60223;34.854;-92.408;2023-04-05T06:12:26;99668.10;;;24.12;41.49
37710;BME280;60223;34.854;-92.408;2023-04-05T06:14:53;99665.10;;;23.63;41.50
37710;BME280;60223;34.854;-92.408;2023-04-05T06:17:16;99672.71;;;24.12;41.48
37710;BME280;60223;34.854;-92.408;2023-04-05T06:19:43;99680.94;;;24.14;41.44
37710;BME280;60223;34.854;-92.408;2023-04-05T06:22:08;99688.06;;;23.62;41.49
37710;BME280;60223;34.854;-92.408;2023-04-05T06:24:34;99693.72;;;23.68;41.41
37710;BME280;60223;34.854;-92.408;2023-04-05T06:26:59;99684.72;;;24.14;41.43
37710;BME280;60223;34.854;-92.408;2023-04-05T06:29:23;99678.75;;;23.63;41.49
37710;BME280;60223;34.854;-92.408;2023-04-05T06:31:50;99674.31;;;23.66;41.43
37710;BME280;60223;34.854;-92.408;2023-04-05T06:34:16;99663.05;;;24.17;41.36
37710;BME280;60223;34.854;-92.408;2023-04-05T06:36:41;99670.90;;;23.65;41.42
37710;BME280;60223;34.854;-92.408;2023-04-05T06:39:07;99669.94;;;23.68;41.37
37710;BME280;60223;34.854;-92.408;2023-04-05T06:41:30;99682.77;;;23.69;41.37
37710;BME280;60223;34.854;-92.408;2023-04-05T06:43:57;99678.18;;;24.12;41.40
37710;BME280;60223;34.854;-92.408;2023-04-05T06:46:23;99682.70;;;23.64;41.39
37710;BME280;60223;34.854;-92.408;2023-04-05T06:48:47;99683.34;;;23.69;41.32
37710;BME280;60223;34.854;-92.408;2023-04-05T06:51:13;99687.02;;;23.91;41.34
37710;BME280;60223;34.854;-92.408;2023-04-05T06:53:39;99693.62;;;23.65;41.37
37710;BME280;60223;34.854;-92.408;2023-04-05T06:56:05;99694.70;;;23.63;41.39
37710;BME280;60223;34.854;-92.408;2023-04-05T06:58:30;99700.85;;;24.13;41.37
37710;BME280;60223;34.854;-92.408;2023-04-05T07:00:56;99700.31;;;23.64;41.38
37710;BME280;60223;34.854;-92.408;2023-04-05T07:03:20;99698.18;;;23.88;41.35
37710;BME280;60223;34.854;-92.408;2023-04-05T07:05:51;99698.90;;;24.15;41.29
37710;BME280;60223;34.854;-92.408;2023-04-05T07:08:12;99691.47;;;24.15;41.28
37710;BME280;60223;34.854;-92.408;2023-04-05T07:10:38;99692.61;;;23.84;41.38
37710;BME280;60223;34.854;-92.408;2023-04-05T07:13:02;99692.15;;;23.64;41.33
37710;BME280;60223;34.854;-92.408;2023-04-05T07:15:27;99687.75;;;23.87;41.32
37710;BME280;60223;34.854;-92.408;2023-04-05T07:17:52;99687.18;;;24.09;41.35
37710;BME280;60223;34.854;-92.408;2023-04-05T07:20:18;99692.47;;;23.87;41.31
37710;BME280;60223;34.854;-92.408;2023-04-05T07:22:42;99687.77;;;23.88;41.28
37710;BME280;60223;34.854;-92.408;2023-04-05T07:25:08;99696.35;;;23.61;41.36
37710;BME280;60223;34.854;-92.408;2023-04-05T07:27:34;99693.21;;;23.65;41.30
37710;BME280;60223;34.854;-92.408;2023-04-05T07:29:56;99684.08;;;23.58;41.39
37710;BME280;60223;34.854;-92.408;2023-04-05T07:32:25;99695.26;;;23.83;41.37
37710;BME280;60223;34.854;-92.408;2023-04-05T07:34:49;99683.26;;;23.85;41.34
37710;BME280;60223;34.854;-92.408;2023-04-05T07:37:15;99674.85;;;23.80;41.39
37710;BME280;60223;34.854;-92.408;2023-04-05T07:39:41;99677.49;;;23.59;41.34
37710;BME280;60223;34.854;-92.408;2023-04-05T07:42:05;99678.97;;;23.58;41.34
37710;BME280;60223;34.854;-92.408;2023-04-05T07:44:32;99683.31;;;23.59;41.33
37710;BME280;60223;34.854;-92.408;2023-04-05T07:46:56;99674.00;;;23.60;41.29
37710;BME280;60223;34.854;-92.408;2023-04-05T07:49:27;99671.01;;;23.82;41.33
37710;BME280;60223;34.854;-92.408;2023-04-05T07:51:49;99676.78;;;24.04;41.34
37710;BME280;60223;34.854;-92.408;2023-04-05T07:54:11;99675.63;;;23.57;41.33
37710;BME280;60223;34.854;-92.408;2023-04-05T07:56:40;99672.32;;;24.03;41.34
37710;BME280;60223;34.854;-92.408;2023-04-05T07:59:04;99663.96;;;23.58;41.28
37710;BME280;60223;34.854;-92.408;2023-04-05T08:01:29;99658.76;;;23.85;41.24
37710;BME280;60223;34.854;-92.408;2023-04-05T08:03:54;99661.42;;;24.06;41.26
37710;BME280;60223;34.854;-92.408;2023-04-05T08:06:19;99652.77;;;24.05;41.29
37710;BME280;60223;34.854;-92.408;2023-04-05T08:08:45;99662.92;;;23.58;41.27
37710;BME280;60223;34.854;-92.408;2023-04-05T08:11:09;99666.20;;;23.53;41.33
37710;BME280;60223;34.854;-92.408;2023-04-05T08:13:36;99655.89;;;23.59;41.24
37710;BME280;60223;34.854;-92.408;2023-04-05T08:16:01;99654.90;;;23.84;41.22
37710;BME280;60223;34.854;-92.408;2023-04-05T08:18:26;99630.01;;;24.10;41.17
37710;BME280;60223;34.854;-92.408;2023-04-05T08:20:54;99621.56;;;24.07;41.22
37710;BME280;60223;34.854;-92.408;2023-04-05T08:23:18;99614.71;;;23.82;41.24
37710;BME280;60223;34.854;-92.408;2023-04-05T08:25:43;99604.39;;;23.83;41.22
37710;BME280;60223;34.854;-92.408;2023-04-05T08:28:09;99612.93;;;23.59;41.21
37710;BME280;60223;34.854;-92.408;2023-04-05T08:30:34;99626.03;;;23.83;41.21
37710;BME280;60223;34.854;-92.408;2023-04-05T08:32:59;99647.69;;;23.57;41.23
37710;BME280;60223;34.854;-92.408;2023-04-05T08:35:24;99648.89;;;23.59;41.23
37710;BME280;60223;34.854;-92.408;2023-04-05T08:37:50;99641.14;;;23.60;41.18
37710;BME280;60223;34.854;-92.408;2023-04-05T08:40:15;99627.98;;;24.08;41.18
37710;BME280;60223;34.854;-92.408;2023-04-05T08:42:45;99626.90;;;23.58;41.21
37710;BME280;60223;34.854;-92.408;2023-04-05T08:45:10;99625.58;;;23.62;41.14
37710;BME280;60223;34.854;-92.408;2023-04-05T08:47:32;99643.96;;;23.60;41.17
37710;BME280;60223;34.854;-92.408;2023-04-05T08:49:56;99655.73;;;23.82;41.18
37710;BME280;60223;34.854;-92.408;2023-04-05T08:52:24;99663.17;;;23.60;41.16
37710;BME280;60223;34.854;-92.408;2023-04-05T08:54:48;99673.59;;;24.10;41.13
37710;BME280;60223;34.854;-92.408;2023-04-05T08:57:14;99653.57;;;23.83;41.16
37710;BME280;60223;34.854;-92.408;2023-04-05T08:59:40;99663.15;;;23.85;41.11
37710;BME280;60223;34.854;-92.408;2023-04-05T09:02:06;99679.68;;;23.58;41.16
37710;BME280;60223;34.854;-92.408;2023-04-05T09:04:34;99661.40;;;23.62;41.09
37710;BME280;60223;34.854;-92.408;2023-04-05T09:06:58;99669.71;;;23.82;41.16
37710;BME280;60223;34.854;-92.408;2023-04-05T09:09:23;99663.93;;;23.59;41.13
37710;BME280;60223;34.854;-92.408;2023-04-05T09:11:46;99665.42;;;23.59;41.12
37710;BME280;60223;34.854;-92.408;2023-04-05T09:14:12;99666.39;;;24.07;41.12
37710;BME280;60223;34.854;-92.408;2023-04-05T09:16:40;99672.89;;;24.09;41.11
37710;BME280;60223;34.854;-92.408;2023-04-05T09:19:02;99675.52;;;23.86;41.07
37710;BME280;60223;34.854;-92.408;2023-04-05T09:21:27;99671.65;;;23.82;41.12
37710;BME280;60223;34.854;-92.408;2023-04-05T09:23:54;99671.57;;;23.79;41.16
37710;BME280;60223;34.854;-92.408;2023-04-05T09:26:20;99670.01;;;23.59;41.10
37710;BME280;60223;34.854;-92.408;2023-04-05T09:28:44;99676.88;;;24.04;41.14
37710;BME280;60223;34.854;-92.408;2023-04-05T09:31:09;99672.40;;;24.04;41.12
37710;BME280;60223;34.854;-92.408;2023-04-05T09:33:34;99691.09;;;23.57;41.11
37710;BME280;60223;34.854;-92.408;2023-04-05T09:36:00;99686.42;;;23.56;41.11
37710;BME280;60223;34.854;-92.408;2023-04-05T09:40:51;99693.04;;;23.55;41.11
37710;BME280;60223;34.854;-92.408;2023-04-05T09:45:42;99702.93;;;24.04;41.10
37710;BME280;60223;34.854;-92.408;2023-04-05T09:48:08;99702.70;;;23.54;41.11
37710;BME280;60223;34.854;-92.408;2023-04-05T09:50:32;99705.87;;;23.57;41.07
37710;BME280;60223;34.854;-92.408;2023-04-05T09:53:06;99713.35;;;23.55;41.08
37710;BME280;60223;34.854;-92.408;2023-04-05T09:55:28;99718.39;;;23.76;41.12
37710;BME280;60223;34.854;-92.408;2023-04-05T09:57:49;99725.04;;;23.55;41.08
37710;BME280;60223;34.854;-92.408;2023-04-05T10:00:18;99715.84;;;24.03;41.05
37710;BME280;60223;34.854;-92.408;2023-04-05T10:02:41;99716.47;;;24.02;41.08
37710;BME280;60223;34.854;-92.408;2023-04-05T10:05:06;99711.03;;;23.78;41.08
37710;BME280;60223;34.854;-92.408;2023-04-05T10:07:31;99720.28;;;23.81;41.03
37710;BME280;60223;34.854;-92.408;2023-04-05T10:09:56;99725.90;;;23.56;41.05
37710;BME280;60223;34.854;-92.408;2023-04-05T10:12:25;99731.57;;;23.79;41.07
37710;BME280;60223;34.854;-92.408;2023-04-05T10:14:47;99735.03;;;23.80;41.05
37710;BME280;60223;34.854;-92.408;2023-04-05T10:17:18;99736.03;;;23.80;41.04
37710;BME280;60223;34.854;-92.408;2023-04-05T10:19:50;99722.97;;;23.76;41.09
37710;BME280;60223;34.854;-92.408;2023-04-05T10:22:05;99720.29;;;23.57;41.03
37710;BME280;60223;34.854;-92.408;2023-04-05T10:24:37;99719.68;;;23.54;41.06
37710;BME280;60223;34.854;-92.408;2023-04-05T10:27:00;99720.72;;;23.54;41.05
37710;BME280;60223;34.854;-92.408;2023-04-05T10:29:24;99719.76;;;23.77;41.05
37710;BME280;60223;34.854;-92.408;2023-04-05T10:31:53;99725.78;;;23.77;41.05
37710;BME280;60223;34.854;-92.408;2023-04-05T10:34:19;99723.21;;;23.78;41.03
37710;BME280;60223;34.854;-92.408;2023-04-05T10:36:44;99732.69;;;23.77;41.05
37710;BME280;60223;34.854;-92.408;2023-04-05T10:39:03;99737.68;;;23.76;41.05
37710;BME280;60223;34.854;-92.408;2023-04-05T10:41:27;99732.74;;;23.53;41.06
37710;BME280;60223;34.854;-92.408;2023-04-05T10:43:55;99724.42;;;24.01;41.03
37710;BME280;60223;34.854;-92.408;2023-04-05T10:46:22;99716.33;;;23.55;41.01
37710;BME280;60223;34.854;-92.408;2023-04-05T10:48:47;99703.44;;;23.80;40.96
37710;BME280;60223;34.854;-92.408;2023-04-05T10:51:08;99705.03;;;23.54;40.99
37710;BME280;60223;34.854;-92.408;2023-04-05T10:53:33;99716.85;;;23.49;41.08
37710;BME280;60223;34.854;-92.408;2023-04-05T10:55:58;99717.32;;;23.96;41.08
37710;BME280;60223;34.854;-92.408;2023-04-05T10:58:25;99709.21;;;23.97;41.05
37710;BME280;60223;34.854;-92.408;2023-04-05T11:00:50;99706.46;;;23.56;40.94
37710;BME280;60223;34.854;-92.408;2023-04-05T11:05:40;99724.52;;;24.00;41.02
37710;BME280;60223;34.854;-92.408;2023-04-05T11:08:05;99741.24;;;23.75;41.03
37710;BME280;60223;34.854;-92.408;2023-04-05T11:10:32;99740.31;;;23.70;41.12
37710;BME280;60223;34.854;-92.408;2023-04-05T11:13:03;99744.51;;;23.74;41.05
37710;BME280;60223;34.854;-92.408;2023-04-05T11:15:30;99745.90;;;23.50;41.02
37710;BME280;60223;34.854;-92.408;2023-04-05T11:17:58;99758.47;;;23.75;41.02
37710;BME280;60223;34.854;-92.408;2023-04-05T11:20:14;99748.50;;;23.75;41.01
37710;BME280;60223;34.854;-92.408;2023-04-05T11:22:34;99750.34;;;23.51;41.01
37710;BME280;60223;34.854;-92.408;2023-04-05T11:25:03;99755.69;;;23.50;41.02
37710;BME280;60223;34.854;-92.408;2023-04-05T11:27:29;99751.39;;;23.51;40.99
37710;BME280;60223;34.854;-92.408;2023-04-05T11:29:53;99741.41;;;23.74;41.00
37710;BME280;60223;34.854;-92.408;2023-04-05T11:32:18;99736.81;;;23.99;40.97
37710;BME280;60223;34.854;-92.408;2023-04-05T11:34:44;99742.13;;;23.50;40.99
37710;BME280;60223;34.854;-92.408;2023-04-05T11:37:10;99730.62;;;23.53;40.94
37710;BME280;60223;34.854;-92.408;2023-04-05T11:39:34;99726.68;;;23.73;41.00
37710;BME280;60223;34.854;-92.408;2023-04-05T11:42:01;99731.60;;;23.49;41.00
37710;BME280;60223;34.854;-92.408;2023-04-05T11:44:26;99731.53;;;23.76;40.97
37710;BME280;60223;34.854;-92.408;2023-04-05T11:46:50;99737.18;;;23.96;41.03
37710;BME280;60223;34.854;-92.408;2023-04-05T11:49:17;99735.56;;;23.71;41.05
37710;BME280;60223;34.854;-92.408;2023-04-05T11:51:42;99736.10;;;23.92;41.11
37710;BME280;60223;34.854;-92.408;2023-04-05T11:54:07;99750.72;;;23.46;41.11
37710;BME280;60223;34.854;-92.408;2023-04-05T11:56:32;99764.79;;;23.49;41.07
37710;BME280;60223;34.854;-92.408;2023-04-05T11:59:01;99778.42;;;23.69;41.10
37710;BME280;60223;34.854;-92.408;2023-04-05T12:01:21;99791.87;;;23.78;40.96
37710;BME280;60223;34.854;-92.408;2023-04-05T12:03:45;99801.67;;;23.54;40.95
37710;BME280;60223;34.854;-92.408;2023-04-05T12:06:13;99817.45;;;23.51;41.05
37710;BME280;60223;34.854;-92.408;2023-04-05T12:08:39;99839.61;;;23.70;41.17
37710;BME280;60223;34.854;-92.408;2023-04-05T12:11:05;99839.04;;;23.94;41.18
37710;BME280;60223;34.854;-92.408;2023-04-05T12:13:31;99838.91;;;23.62;41.27
37710;BME280;60223;34.854;-92.408;2023-04-05T12:15:56;99851.14;;;23.84;41.32
37710;BME280;60223;34.854;-92.408;2023-04-05T12:18:20;99871.18;;;23.47;41.14
37710;BME280;60223;34.854;-92.408;2023-04-05T12:20:46;99876.03;;;23.67;41.21
37710;BME280;60223;34.854;-92.408;2023-04-05T12:23:12;99885.43;;;23.94;41.16
37710;BME280;60223;34.854;-92.408;2023-04-05T12:25:38;99874.76;;;23.70;41.15
37710;BME280;60223;34.854;-92.408;2023-04-05T12:28:07;99878.36;;;23.98;41.07
37710;BME280;60223;34.854;-92.408;2023-04-05T12:30:27;99889.02;;;23.50;41.07
37710;BME280;60223;34.854;-92.408;2023-04-05T12:32:55;99911.41;;;23.98;41.07
37710;BME280;60223;34.854;-92.408;2023-04-05T12:35:21;99912.10;;;23.73;41.08
37710;BME280;60223;34.854;-92.408;2023-04-05T12:37:45;99908.20;;;23.47;41.08
37710;BME280;60223;34.854;-92.408;2023-04-05T12:40:12;99903.41;;;23.92;41.11
37710;BME280;60223;34.854;-92.408;2023-04-05T12:42:38;99894.36;;;23.94;41.11